createdAt,value
2019-04-07T00:00:37.132Z,38.78
2019-04-07T00:03:25.579Z,42.33
2019-04-07T00:05:54.173Z,40.10
2019-04-07T00:08:23.069Z,40.63
2019-04-07T00:10:51.929Z,40.85
2019-04-07T00:13:20.458Z,40.83
2019-04-07T00:15:49.849Z,42.98
2019-04-07T00:18:19.149Z,41.25
2019-04-07T00:20:47.673Z,43.20
2019-04-07T00:23:16.283Z,42.20
2019-04-07T00:25:44.774Z,42.27
2019-04-07T00:28:13.548Z,39.33
2019-04-07T00:30:42.509Z,40.98
2019-04-07T00:33:11.520Z,39.95
2019-04-07T00:35:40.342Z,43.23
2019-04-07T00:38:08.798Z,39.13
2019-04-07T00:40:38.210Z,40.58
2019-04-07T00:43:06.775Z,40.12
2019-04-07T00:45:35.662Z,40.80
2019-04-07T00:48:04.682Z,41.55
2019-04-07T00:50:33.656Z,39.33
2019-04-07T00:53:02.118Z,38.70
2019-04-07T00:55:31.002Z,44.20
2019-04-07T00:58:00.427Z,40.20
2019-04-07T01:00:31.522Z,36.63
2019-04-07T01:02:59.958Z,39.10
2019-04-07T01:05:37.387Z,41.08
2019-04-07T01:07:59.183Z,39.92
2019-04-07T01:10:28.133Z,40.30
2019-04-07T01:12:56.970Z,39.92
2019-04-07T01:15:26.389Z,40.00
2019-04-07T01:17:55.209Z,38.67
2019-04-07T01:20:24.275Z,39.23
2019-04-07T01:22:52.850Z,37.20
2019-04-07T01:25:21.485Z,38.55
2019-04-07T01:27:50.310Z,39.13
2019-04-07T01:30:19.227Z,42.15
2019-04-07T01:32:48.731Z,37.45
2019-04-07T01:35:17.690Z,38.05
2019-04-07T01:37:47.215Z,36.63
2019-04-07T01:40:16.818Z,36.35
2019-04-07T01:42:49.897Z,35.23
2019-04-07T01:45:36.906Z,37.58
2019-04-07T01:48:13.936Z,36.98
2019-04-07T01:50:47.067Z,37.98
2019-04-07T01:53:18.008Z,39.13
2019-04-07T01:56:00.274Z,38.95
2019-04-07T01:58:48.327Z,40.50
2019-04-07T02:01:21.852Z,38.20
2019-04-07T02:03:58.452Z,37.65
2019-04-07T02:06:34.909Z,37.10
2019-04-07T02:09:23.704Z,42.73
2019-04-07T02:12:06.031Z,40.63
2019-04-07T02:14:53.320Z,43.92
2019-04-07T02:17:32.666Z,40.52
2019-04-07T02:20:03.765Z,41.48
2019-04-07T02:22:48.947Z,39.58
2019-04-07T02:25:19.925Z,38.58
2019-04-07T02:27:52.771Z,39.80
2019-04-07T02:30:35.258Z,39.48
2019-04-07T02:33:21.087Z,37.93
2019-04-07T02:35:54.579Z,41.28
2019-04-07T02:38:25.047Z,41.20
2019-04-07T02:41:12.430Z,38.92
2019-04-07T02:43:46.560Z,38.83
2019-04-07T02:46:33.347Z,39.90
2019-04-07T02:49:04.175Z,38.35
2019-04-07T02:51:40.345Z,39.20
2019-04-07T02:54:27.474Z,44.35
2019-04-07T02:57:06.434Z,40.67
2019-04-07T02:59:41.099Z,39.83
2019-04-07T03:02:27.965Z,40.35
2019-04-07T03:05:05.320Z,40.70
2019-04-07T03:07:48.824Z,40.28
2019-04-07T03:10:29.129Z,42.15
2019-04-07T03:13:09.245Z,42.65
2019-04-07T03:15:52.743Z,40.20
2019-04-07T03:18:29.369Z,40.48
2019-04-07T03:21:09.834Z,41.25
2019-04-07T03:23:56.515Z,40.30
2019-04-07T03:26:36.426Z,39.23
2019-04-07T03:29:23.725Z,41.13
2019-04-07T03:31:59.652Z,40.20
2019-04-07T03:34:49.011Z,41.45
2019-04-07T03:37:36.027Z,42.93
2019-04-07T03:40:02.668Z,42.95
2019-04-07T03:42:36.915Z,41.80
2019-04-07T03:45:08.468Z,41.20
2019-04-07T03:47:39.509Z,41.92
2019-04-07T03:50:16.505Z,42.08
2019-04-07T03:53:02.994Z,42.88
2019-04-07T03:55:39.282Z,41.70
2019-04-07T03:58:26.767Z,43.25
2019-04-07T04:01:15.623Z,43.25
2019-04-07T04:04:02.235Z,41.63
2019-04-07T04:06:51.506Z,40.50
2019-04-07T04:09:24.565Z,42.30
2019-04-07T04:11:55.626Z,42.15
2019-04-07T04:14:32.116Z,41.63
2019-04-07T04:17:00.904Z,42.78
2019-04-07T04:19:30.185Z,39.33
2019-04-07T04:21:59.071Z,40.55
2019-04-07T04:24:28.416Z,44.70
2019-04-07T04:26:57.227Z,41.20
2019-04-07T04:29:26.521Z,45.40
2019-04-07T04:31:55.689Z,42.73
2019-04-07T04:34:25.106Z,40.63
2019-04-07T04:36:54.490Z,40.10
2019-04-07T04:39:23.107Z,40.78
2019-04-07T04:41:52.066Z,41.75
2019-04-07T04:44:21.881Z,41.45
2019-04-07T04:46:51.123Z,41.37
2019-04-07T04:49:20.028Z,41.18
2019-04-07T04:51:50.078Z,43.50
2019-04-07T04:54:19.338Z,44.08
2019-04-07T04:56:47.864Z,41.63
2019-04-07T04:59:16.679Z,42.05
2019-04-07T05:01:45.553Z,43.15
2019-04-07T05:04:13.997Z,43.10
2019-04-07T05:06:42.474Z,41.95
2019-04-07T05:09:10.999Z,40.43
2019-04-07T05:11:58.876Z,42.95
2019-04-07T05:14:27.721Z,39.95
2019-04-07T05:16:56.527Z,40.45
2019-04-07T05:19:24.983Z,42.73
2019-04-07T05:21:53.794Z,39.92
2019-04-07T05:24:22.673Z,42.25
2019-04-07T05:26:51.149Z,43.23
2019-04-07T05:29:20.132Z,42.38
2019-04-07T05:31:49.212Z,43.28
2019-04-07T05:34:20.420Z,41.68
2019-04-07T05:36:48.622Z,42.55
2019-04-07T05:39:17.541Z,40.80
2019-04-07T05:41:46.509Z,40.63
2019-04-07T05:44:15.380Z,41.13
2019-04-07T05:46:43.941Z,39.98
2019-04-07T05:49:15.656Z,41.30
2019-04-07T05:51:43.379Z,41.50
2019-04-07T05:54:12.482Z,40.08
2019-04-07T05:56:41.395Z,39.78
2019-04-07T05:59:12.101Z,40.73
2019-04-07T06:01:40.670Z,39.98
2019-04-07T06:04:14.318Z,39.13
2019-04-07T06:06:41.881Z,37.83
2019-04-07T06:09:11.221Z,39.30
2019-04-07T06:11:40.159Z,40.35
2019-04-07T06:14:09.067Z,39.80
2019-04-07T06:16:37.958Z,38.05
2019-04-07T06:19:08.134Z,36.80
2019-04-07T06:21:37.826Z,39.42
2019-04-07T06:24:06.674Z,36.73
2019-04-07T06:26:36.396Z,35.38
2019-04-07T06:29:05.957Z,37.17
2019-04-07T06:31:34.810Z,33.97
2019-04-07T06:34:04.202Z,35.63
2019-04-07T06:36:32.844Z,32.93
2019-04-07T06:39:01.634Z,35.00
2019-04-07T06:41:31.416Z,34.93
2019-04-07T06:44:10.101Z,35.83
2019-04-07T06:46:49.201Z,35.43
2019-04-07T06:49:19.699Z,34.50
2019-04-07T06:52:02.880Z,30.97
2019-04-07T06:54:47.081Z,33.87
2019-04-07T06:57:17.442Z,35.77
2019-04-07T07:00:03.895Z,31.37
2019-04-07T07:02:34.138Z,31.70
2019-04-07T07:05:22.465Z,32.50
2019-04-07T07:08:01.978Z,32.63
2019-04-07T07:10:40.132Z,32.17
2019-04-07T07:13:28.320Z,31.50
2019-04-07T07:16:09.619Z,30.33
2019-04-07T07:18:51.189Z,31.13
2019-04-07T07:21:24.625Z,32.93
2019-04-07T07:23:53.251Z,31.73
2019-04-07T07:26:21.946Z,31.17
2019-04-07T07:28:51.052Z,31.00
2019-04-07T07:31:22.772Z,32.00
2019-04-07T07:33:49.963Z,30.67
2019-04-07T07:36:21.444Z,30.37
2019-04-07T07:38:56.646Z,30.97
2019-04-07T07:41:21.350Z,30.80
2019-04-07T07:43:49.193Z,32.93
2019-04-07T07:46:20.552Z,33.57
2019-04-07T07:48:48.016Z,29.87
2019-04-07T07:51:16.587Z,32.27
2019-04-07T07:53:45.185Z,30.27
2019-04-07T07:56:14.357Z,30.30
2019-04-07T07:58:42.991Z,30.50
2019-04-07T08:01:13.850Z,27.73
2019-04-07T08:03:42.482Z,31.30
2019-04-07T08:06:11.781Z,29.07
2019-04-07T08:08:40.555Z,28.93
2019-04-07T08:11:09.981Z,29.63
2019-04-07T08:13:43.405Z,28.13
2019-04-07T08:16:09.719Z,29.20
2019-04-07T08:18:40.678Z,28.87
2019-04-07T08:21:08.708Z,28.30
2019-04-07T08:23:39.020Z,26.53
2019-04-07T08:26:08.279Z,27.37
2019-04-07T08:28:36.891Z,23.97
2019-04-07T08:31:05.531Z,22.57
2019-04-07T08:33:34.280Z,20.77
2019-04-07T08:36:03.334Z,21.13
2019-04-07T08:38:32.164Z,20.67
2019-04-07T08:41:01.971Z,23.57
2019-04-07T08:43:30.778Z,21.03
2019-04-07T08:46:02.272Z,22.17
2019-04-07T08:48:30.612Z,22.53
2019-04-07T08:51:01.029Z,24.27
2019-04-07T08:53:29.584Z,22.73
2019-04-07T08:55:58.837Z,23.40
2019-04-07T08:58:28.974Z,23.83
2019-04-07T09:00:58.518Z,24.97
2019-04-07T09:03:27.941Z,22.00
2019-04-07T09:05:57.556Z,23.33
2019-04-07T09:08:26.913Z,23.83
2019-04-07T09:10:59.855Z,23.00
2019-04-07T09:13:31.649Z,23.33
2019-04-07T09:16:17.213Z,22.20
2019-04-07T09:19:00.697Z,21.53
2019-04-07T09:21:40.013Z,23.10
2019-04-07T09:24:09.413Z,22.90
2019-04-07T09:26:44.498Z,22.27
2019-04-07T09:29:28.208Z,22.40
2019-04-07T09:31:58.691Z,23.27
2019-04-07T09:34:29.150Z,24.03
2019-04-07T09:37:02.293Z,23.40
2019-04-07T09:39:56.753Z,22.93
2019-04-07T09:42:36.857Z,22.53
2019-04-07T09:45:25.379Z,22.70
2019-04-07T09:48:11.131Z,23.23
2019-04-07T09:50:48.138Z,22.50
2019-04-07T09:53:21.484Z,24.23
2019-04-07T09:55:57.013Z,21.50
2019-04-07T09:58:44.381Z,22.67
2019-04-07T10:01:18.951Z,22.63
2019-04-07T10:03:52.447Z,22.80
2019-04-07T10:06:22.739Z,22.40
2019-04-07T10:09:07.841Z,23.97
2019-04-07T10:11:49.821Z,22.30
2019-04-07T10:14:22.984Z,22.90
2019-04-07T10:16:53.921Z,23.23
2019-04-07T10:19:24.406Z,20.90
2019-04-07T10:22:07.255Z,21.23
2019-04-07T10:24:55.972Z,20.90
2019-04-07T10:27:35.059Z,22.10
2019-04-07T10:30:12.333Z,22.30
2019-04-07T10:33:00.202Z,22.23
2019-04-07T10:35:39.621Z,21.80
2019-04-07T10:38:10.016Z,22.57
2019-04-07T10:40:40.267Z,23.07
2019-04-07T10:43:26.607Z,21.37
2019-04-07T10:46:03.073Z,22.80
2019-04-07T10:48:48.589Z,22.17
2019-04-07T10:51:31.771Z,21.63
2019-04-07T10:54:14.727Z,23.30
2019-04-07T10:56:49.755Z,20.77
2019-04-07T10:59:25.679Z,21.67
2019-04-07T11:02:11.824Z,24.73
2019-04-07T11:04:41.731Z,22.70
2019-04-07T11:07:11.887Z,22.70
2019-04-07T11:09:57.563Z,20.77
2019-04-07T11:12:30.363Z,22.03
2019-04-07T11:15:07.236Z,21.03
2019-04-07T11:17:40.765Z,19.73
2019-04-07T11:20:11.615Z,22.50
2019-04-07T11:22:44.632Z,21.73
2019-04-07T11:25:15.020Z,22.30
2019-04-07T11:27:58.259Z,21.60
2019-04-07T11:30:28.879Z,20.17
2019-04-07T11:32:59.266Z,22.37
2019-04-07T11:35:41.418Z,21.03
2019-04-07T11:38:14.887Z,19.77
2019-04-07T11:40:50.191Z,21.30
2019-04-07T11:43:20.764Z,21.17
2019-04-07T11:46:03.485Z,20.57
2019-04-07T11:48:33.765Z,20.67
2019-04-07T11:51:10.556Z,20.80
2019-04-07T11:53:46.532Z,20.93
2019-04-07T11:56:22.860Z,21.80
2019-04-07T11:59:10.183Z,20.00
2019-04-07T12:01:41.907Z,20.20
2019-04-07T12:04:27.217Z,19.40
2019-04-07T12:07:04.639Z,19.10
2019-04-07T12:09:37.601Z,21.40
2019-04-07T12:12:24.591Z,20.33
2019-04-07T12:15:04.195Z,19.43
2019-04-07T12:17:50.285Z,18.40
2019-04-07T12:20:33.591Z,18.23
2019-04-07T12:23:01.584Z,18.60
2019-04-07T12:25:48.237Z,19.20
2019-04-07T12:28:19.430Z,17.73
2019-04-07T12:30:54.522Z,17.70
2019-04-07T12:36:26.593Z,17.73
2019-04-07T12:38:55.350Z,16.60
2019-04-07T12:41:31.845Z,15.23
2019-04-07T12:44:00.551Z,15.10
2019-04-07T12:46:42.813Z,15.80
2019-04-07T12:49:16.406Z,16.33
2019-04-07T12:51:56.340Z,13.78
2019-04-07T12:54:30.318Z,15.88
2019-04-07T12:57:03.677Z,14.03
2019-04-07T12:59:51.831Z,14.85
2019-04-07T13:02:38.225Z,14.57
2019-04-07T13:05:16.409Z,12.33
2019-04-07T13:07:52.134Z,12.78
2019-04-07T13:10:25.298Z,12.25
2019-04-07T13:13:11.279Z,12.13
2019-04-07T13:15:57.045Z,12.40
2019-04-07T13:18:31.477Z,11.83
2019-04-07T13:21:10.525Z,12.07
2019-04-07T13:23:56.016Z,11.18
2019-04-07T13:26:30.436Z,10.82
2019-04-07T13:29:07.976Z,10.68
2019-04-07T13:31:39.591Z,12.45
2019-04-07T13:34:13.432Z,12.15
2019-04-07T13:37:02.336Z,12.07
2019-04-07T13:39:40.272Z,12.23
2019-04-07T13:42:08.883Z,11.48
2019-04-07T13:44:52.538Z,10.93
2019-04-07T13:47:42.557Z,11.80
2019-04-07T13:50:20.760Z,11.85
2019-04-07T13:52:59.126Z,12.50
2019-04-07T13:55:46.210Z,13.15
2019-04-07T13:58:20.742Z,13.30
2019-04-07T14:00:52.020Z,14.50
2019-04-07T14:03:35.681Z,16.12
2019-04-07T14:06:13.017Z,12.50
2019-04-07T14:08:48.058Z,11.73
2019-04-07T14:11:28.466Z,10.53
2019-04-07T14:14:01.430Z,9.93
2019-04-07T14:16:48.692Z,10.90
2019-04-07T14:19:35.403Z,11.40
2019-04-07T14:22:10.053Z,11.73
2019-04-07T14:24:59.083Z,12.90
2019-04-07T14:27:46.238Z,12.43
2019-04-07T14:30:32.381Z,11.85
2019-04-07T14:33:18.511Z,13.00
2019-04-07T14:36:01.381Z,10.88
2019-04-07T14:38:35.600Z,11.48
2019-04-07T14:41:15.891Z,12.15
2019-04-07T14:43:55.514Z,10.57
2019-04-07T14:52:21.081Z,11.38
2019-04-07T14:54:59.797Z,9.37
2019-04-07T14:58:05.652Z,9.47
2019-04-07T15:00:50.996Z,8.30
2019-04-07T15:03:20.224Z,9.90
2019-04-07T15:05:52.789Z,8.47
2019-04-07T15:08:35.544Z,8.83
2019-04-07T15:11:08.605Z,8.98
2019-04-07T15:13:37.523Z,9.05
2019-04-07T15:16:06.756Z,9.53
2019-04-07T15:18:37.097Z,8.40
2019-04-07T15:21:07.961Z,8.17
2019-04-07T15:23:36.900Z,8.07
2019-04-07T15:26:06.517Z,7.90
2019-04-07T15:28:35.379Z,8.57
2019-04-07T15:31:04.405Z,8.87
2019-04-07T15:33:34.139Z,10.18
2019-04-07T15:36:07.046Z,9.55
2019-04-07T15:38:35.623Z,9.15
2019-04-07T15:41:07.603Z,9.30
2019-04-07T15:43:35.359Z,9.10
2019-04-07T15:46:03.994Z,9.93
2019-04-07T15:48:33.998Z,9.25
2019-04-07T15:51:04.952Z,10.70
2019-04-07T15:53:34.259Z,14.20
2019-04-07T15:56:06.363Z,11.60
2019-04-07T15:58:33.820Z,13.23
2019-04-07T16:01:06.734Z,12.77
2019-04-07T16:03:33.429Z,11.93
2019-04-07T16:06:02.031Z,12.00
2019-04-07T16:08:31.230Z,10.93
2019-04-07T16:11:00.778Z,9.77
2019-04-07T16:13:29.454Z,9.53
2019-04-07T16:15:58.127Z,9.20
2019-04-07T16:18:26.683Z,9.50
2019-04-07T16:20:55.263Z,10.20
2019-04-07T16:23:23.921Z,10.10
2019-04-07T16:25:52.520Z,10.37
2019-04-07T16:28:21.174Z,8.70
2019-04-07T16:30:51.949Z,9.93
2019-04-07T16:33:20.587Z,10.13
2019-04-07T16:35:53.958Z,9.93
2019-04-07T16:38:19.552Z,10.37
2019-04-07T16:40:48.083Z,10.00
2019-04-07T16:43:18.631Z,11.10
2019-04-07T16:45:47.183Z,11.20
2019-04-07T16:48:16.154Z,10.97
2019-04-07T16:50:45.141Z,11.60
2019-04-07T16:53:13.953Z,11.17
2019-04-07T16:55:46.554Z,10.90
2019-04-07T16:58:14.301Z,12.03
2019-04-07T17:00:42.763Z,11.80
2019-04-07T17:03:11.180Z,12.13
2019-04-07T17:05:39.847Z,12.53
2019-04-07T17:08:08.577Z,12.70
2019-04-07T17:10:37.097Z,11.50
2019-04-07T17:13:17.041Z,11.10
2019-04-07T17:15:39.511Z,11.07
2019-04-07T17:18:09.486Z,14.30
2019-04-07T17:20:38.331Z,12.80
2019-04-07T17:23:07.153Z,12.10
2019-04-07T17:25:35.887Z,13.33
2019-04-07T17:28:06.191Z,12.80
2019-04-07T17:30:36.039Z,13.63
2019-04-07T17:33:05.538Z,13.50
2019-04-07T17:35:35.584Z,14.10
2019-04-07T17:38:06.695Z,14.53
2019-04-07T17:40:37.540Z,13.63
2019-04-07T17:43:10.717Z,13.63
2019-04-07T17:45:40.751Z,16.67
2019-04-07T17:48:37.383Z,13.70
2019-04-07T17:51:15.441Z,13.10
2019-04-07T17:53:55.028Z,13.30
2019-04-07T17:56:27.270Z,14.00
2019-04-07T17:58:56.745Z,13.63
2019-04-07T18:01:28.646Z,15.03
2019-04-07T18:03:59.387Z,13.70
2019-04-07T18:06:41.913Z,14.37
2019-04-07T18:09:26.842Z,13.40
2019-04-07T18:12:02.292Z,14.70
2019-04-07T18:14:34.529Z,15.33
2019-04-07T18:17:07.187Z,14.67
2019-04-07T18:19:39.546Z,14.80
2019-04-07T18:22:18.195Z,15.47
2019-04-07T18:25:03.549Z,14.70
2019-04-07T18:27:34.130Z,13.63
2019-04-07T18:30:09.884Z,14.00
2019-04-07T18:32:46.799Z,13.73
2019-04-07T18:35:31.659Z,14.93
2019-04-07T18:38:17.158Z,14.90
2019-04-07T18:40:50.627Z,14.13
2019-04-07T18:43:23.252Z,15.17
2019-04-07T18:45:55.907Z,14.77
2019-04-07T18:48:28.608Z,15.67
2019-04-07T18:50:58.751Z,15.23
2019-04-07T18:53:57.738Z,16.13
2019-04-07T18:59:21.497Z,16.17
2019-04-07T19:05:00.226Z,15.40
2019-04-07T19:07:29.034Z,16.93
2019-04-07T19:10:15.504Z,18.83
2019-04-07T19:13:04.604Z,18.30
2019-04-07T19:15:47.163Z,18.10
2019-04-07T19:18:28.440Z,18.13
2019-04-07T19:20:58.931Z,21.37
2019-04-07T19:23:30.203Z,17.50
2019-04-07T19:26:00.975Z,15.60
2019-04-07T19:28:35.677Z,17.23
2019-04-07T19:31:21.536Z,15.83
2019-04-07T19:33:57.844Z,16.27
2019-04-07T19:36:29.480Z,19.87
2019-04-07T19:39:00.696Z,20.47
2019-04-07T19:41:49.379Z,17.83
2019-04-07T19:44:41.297Z,17.63
2019-04-07T19:47:16.233Z,19.33
2019-04-07T19:50:03.055Z,18.03
2019-04-07T19:52:49.931Z,17.83
2019-04-07T19:55:28.839Z,18.20
2019-04-07T19:58:02.780Z,19.03
2019-04-07T20:00:54.288Z,18.30
2019-04-07T20:03:24.241Z,17.93
2019-04-07T20:06:03.350Z,16.40
2019-04-07T20:08:43.691Z,18.27
2019-04-07T20:11:28.478Z,21.00
2019-04-07T20:13:56.317Z,16.53
2019-04-07T20:16:29.134Z,19.77
2019-04-07T20:19:13.979Z,18.20
2019-04-07T20:21:49.375Z,17.20
2019-04-07T20:24:37.424Z,18.53
2019-04-07T20:27:14.144Z,18.70
2019-04-07T20:29:47.301Z,19.57
2019-04-07T20:32:21.351Z,19.40
2019-04-07T20:35:08.648Z,21.27
2019-04-07T20:37:58.391Z,20.17
2019-04-07T20:40:38.776Z,20.00
2019-04-07T20:43:08.956Z,24.17
2019-04-07T20:45:41.753Z,18.47
2019-04-07T20:48:12.004Z,20.73
2019-04-07T20:50:45.720Z,23.50
2019-04-07T20:53:22.238Z,20.57
2019-04-07T20:55:52.873Z,17.60
2019-04-07T20:58:44.873Z,18.60
2019-04-07T21:01:07.196Z,17.60
2019-04-07T21:03:53.048Z,17.00
2019-04-07T21:06:29.336Z,18.37
2019-04-07T21:08:59.522Z,18.13
2019-04-07T21:11:33.229Z,16.90
2019-04-07T21:14:09.606Z,16.80
2019-04-07T21:16:45.234Z,18.30
2019-04-07T21:19:27.462Z,18.50
2019-04-07T21:22:01.232Z,17.20
2019-04-07T21:24:49.754Z,17.83
2019-04-07T21:27:26.713Z,17.30
2019-04-07T21:29:56.754Z,18.07
2019-04-07T21:32:35.264Z,17.80
2019-04-07T21:35:05.637Z,18.00
2019-04-07T21:37:35.871Z,18.60
2019-04-07T21:40:09.967Z,18.77
2019-04-07T21:42:42.681Z,19.80
2019-04-07T21:45:12.888Z,19.77
2019-04-07T21:47:57.268Z,18.53
2019-04-07T21:50:26.052Z,20.40
2019-04-07T21:53:07.860Z,19.87
2019-04-07T21:55:44.581Z,19.23
2019-04-07T21:58:25.078Z,21.20
2019-04-07T22:01:12.127Z,19.80
2019-04-07T22:03:58.757Z,19.57
2019-04-07T22:06:40.536Z,18.97
2019-04-07T22:09:20.630Z,19.60
2019-04-07T22:11:49.435Z,20.47
2019-04-07T22:14:18.836Z,20.57
2019-04-07T22:16:47.183Z,20.33
2019-04-07T22:19:16.364Z,20.77
2019-04-07T22:21:45.270Z,21.97
2019-04-07T22:24:13.469Z,20.80
2019-04-07T22:26:46.174Z,21.37
2019-04-07T22:29:11.878Z,21.27
2019-04-07T22:31:46.093Z,20.37
2019-04-07T22:34:15.045Z,21.00
2019-04-07T22:36:45.470Z,19.87
2019-04-07T22:39:14.138Z,21.33
2019-04-07T22:41:42.985Z,19.23
2019-04-07T22:44:11.865Z,20.43
2019-04-07T22:46:40.039Z,20.90
2019-04-07T22:49:09.249Z,21.43
2019-04-07T22:51:38.163Z,21.00
2019-04-07T22:54:07.729Z,21.17
2019-04-07T22:56:38.361Z,22.32
2019-04-07T22:59:09.052Z,21.20
2019-04-07T23:01:36.949Z,20.80
2019-04-07T23:04:05.620Z,22.00
2019-04-07T23:06:34.231Z,20.97
2019-04-07T23:09:04.518Z,20.80
2019-04-07T23:11:32.871Z,20.83
2019-04-07T23:14:01.420Z,22.43
2019-04-07T23:16:30.021Z,22.37
2019-04-07T23:18:58.788Z,21.73
2019-04-07T23:21:27.930Z,22.87
2019-04-07T23:23:57.686Z,21.25
2019-04-07T23:26:26.487Z,21.63
2019-04-07T23:28:56.207Z,23.15
2019-04-07T23:31:25.269Z,22.02
2019-04-07T23:33:54.388Z,23.05
2019-04-07T23:36:23.122Z,23.63
2019-04-07T23:38:51.897Z,23.57
2019-04-07T23:41:20.698Z,23.12
2019-04-07T23:43:50.502Z,23.38
2019-04-07T23:46:24.278Z,22.15
2019-04-07T23:48:49.999Z,22.35
2019-04-07T23:51:18.872Z,23.85
2019-04-07T23:54:07.500Z,25.00
2019-04-07T23:56:37.133Z,22.80
2019-04-07T23:59:06.237Z,23.10
